Time;durP1;ratioP1;P1;durP2;ratioP2;P2;SDS_P1;SDS_P2;PMS_P1;PMS_P2;Temp;Humidity;BMP_temperature;BMP_pressure;BME280_temperature;BME280_humidity;BME280_pressure;Samples;Min_cycle;Max_cycle;Signal;HPM_P1;HPM_P2
2022/05/04 00:00:07;;;;;;;7.05;2.70;;;;;;;9.26;66.11;102001.81;5013500;28;20042;-48
2022/05/04 00:02:32;;;;;;;8.27;2.83;;;;;;;9.12;66.13;102002.34;5013068;28;20033;-49
2022/05/04 00:04:57;;;;;;;12.65;2.65;;;;;;;9.14;65.41;102005.59;5013424;28;20093;-48
2022/05/04 00:07:23;;;;;;;8.27;2.55;;;;;;;8.76;66.80;102008.28;5013026;28;20022;-47
2022/05/04 00:09:48;;;;;;;9.35;2.60;;;;;;;8.85;66.91;102006.59;5012863;28;20073;-47
2022/05/04 00:12:13;;;;;;;12.73;2.80;;;;;;;8.93;66.72;102011.84;5013411;28;20073;-46
2022/05/04 00:14:38;;;;;;;11.00;2.83;;;;;;;9.16;65.62;102004.50;5011515;28;20397;-47
2022/05/04 00:17:04;;;;;;;10.85;2.78;;;;;;;9.09;66.02;102003.47;5013683;28;20022;-47
2022/05/04 00:19:29;;;;;;;15.48;2.92;;;;;;;9.19;66.93;102004.19;4995882;28;20032;-47
2022/05/04 00:21:54;;;;;;;13.05;2.92;;;;;;;9.24;65.77;102003.75;5013012;28;20022;-48
2022/05/04 00:24:20;;;;;;;11.60;3.42;;;;;;;9.31;66.35;102009.13;5013570;28;20108;-48
2022/05/04 00:26:48;;;;;;;11.95;3.72;;;;;;;8.98;66.25;102001.91;5013009;28;20461;-47
2022/05/04 00:29:13;;;;;;;11.82;2.80;;;;;;;9.03;66.12;102002.28;5013823;28;20445;-47
2022/05/04 00:31:38;;;;;;;12.50;3.20;;;;;;;8.98;66.71;102001.09;5016510;28;20064;-47
2022/05/04 00:34:04;;;;;;;10.82;2.80;;;;;;;8.85;66.65;102004.03;5017054;28;20034;-48
2022/05/04 00:36:29;;;;;;;7.13;2.88;;;;;;;8.98;66.45;102003.69;5016602;28;20101;-48
2022/05/04 00:38:55;;;;;;;12.23;2.92;;;;;;;8.93;67.04;101998.94;5016689;28;20026;-47
2022/05/04 00:41:20;;;;;;;9.52;3.10;;;;;;;8.93;66.63;101998.16;5016587;28;20110;-48
2022/05/04 00:43:55;;;;;;;11.70;2.75;;;;;;;8.98;66.86;102006.25;5016268;28;20109;-48
2022/05/04 00:46:21;;;;;;;11.05;2.95;;;;;;;8.85;66.25;101998.88;5016598;28;20030;-47
2022/05/04 00:48:47;;;;;;;11.05;3.17;;;;;;;8.74;67.11;102001.63;5016236;28;20475;-48
2022/05/04 00:51:13;;;;;;;11.27;3.28;;;;;;;8.89;67.47;101987.31;5016461;28;20037;-45
2022/05/04 00:53:41;;;;;;;13.18;2.80;;;;;;;8.85;67.75;102004.03;5016129;28;20044;-45
2022/05/04 00:56:08;;;;;;;13.95;3.33;;;;;;;8.75;67.75;102008.44;5016557;28;20364;-46
2022/05/04 00:58:54;;;;;;;13.85;3.00;;;;;;;8.84;67.84;102001.59;5015873;28;20384;-45
2022/05/04 01:01:21;;;;;;;9.07;3.03;;;;;;;8.57;67.49;101992.91;5015939;28;20030;-47
2022/05/04 01:03:46;;;;;;;11.18;3.13;;;;;;;8.68;67.56;101997.88;5016114;28;20033;-47
2022/05/04 01:06:12;;;;;;;12.38;3.22;;;;;;;8.71;67.39;101994.19;5015831;28;20074;-46
2022/05/04 01:08:37;;;;;;;11.82;3.20;;;;;;;8.66;67.79;101984.34;5015687;28;20030;-46
2022/05/04 01:11:03;;;;;;;14.75;3.22;;;;;;;8.45;68.12;101994.88;5015944;28;20048;-46
2022/05/04 01:13:28;;;;;;;14.15;3.22;;;;;;;8.51;67.85;101989.16;4998144;28;20034;-46
2022/05/04 01:15:53;;;;;;;14.05;4.15;;;;;;;8.46;67.94;101988.78;5014278;28;20085;-46
2022/05/04 01:18:19;;;;;;;10.73;2.97;;;;;;;8.43;68.59;101994.22;5015914;28;20030;-49
2022/05/04 01:20:44;;;;;;;10.68;3.22;;;;;;;8.58;68.50;101997.94;5016025;28;20022;-46
2022/05/04 01:23:10;;;;;;;15.93;3.10;;;;;;;8.57;68.32;101991.19;5015541;28;20022;-46
2022/05/04 01:25:35;;;;;;;13.55;3.35;;;;;;;8.45;67.93;101996.66;5015535;28;20037;-47
2022/05/04 01:28:01;;;;;;;13.38;3.30;;;;;;;8.56;67.96;101988.72;5016174;28;20022;-45
2022/05/04 01:30:27;;;;;;;14.07;3.20;;;;;;;8.66;67.56;101993.81;5015276;28;20029;-46
2022/05/04 01:32:52;;;;;;;12.48;3.25;;;;;;;8.31;68.64;101992.75;5015328;28;20068;-47
2022/05/04 01:35:17;;;;;;;8.40;2.88;;;;;;;8.41;69.31;101985.81;5015570;28;20575;-46
2022/05/04 01:37:43;;;;;;;14.90;3.55;;;;;;;8.43;68.91;101993.41;5015553;28;20018;-45
2022/05/04 01:40:09;;;;;;;10.77;3.10;;;;;;;8.48;68.51;101981.72;5015194;28;20030;-46
2022/05/04 01:42:34;;;;;;;11.00;3.10;;;;;;;8.49;68.77;101990.28;5014434;28;20029;-45
2022/05/04 01:44:59;;;;;;;8.45;2.60;;;;;;;8.47;68.24;101990.41;5013925;28;20028;-46
2022/05/04 01:47:24;;;;;;;8.05;3.05;;;;;;;8.54;68.09;101988.84;4997487;28;20061;-47
2022/05/04 01:49:50;;;;;;;16.73;2.97;;;;;;;8.46;67.31;101999.09;5015334;28;20034;-46
2022/05/04 01:52:15;;;;;;;12.30;3.33;;;;;;;8.62;68.39;101985.56;5015188;28;20101;-47
2022/05/04 01:54:40;;;;;;;13.38;3.22;;;;;;;8.58;68.26;101981.69;5014944;28;20029;-47
2022/05/04 01:57:06;;;;;;;14.68;3.22;;;;;;;8.58;68.26;101990.22;5015411;28;20033;-47
2022/05/04 01:59:31;;;;;;;17.50;3.20;;;;;;;8.55;68.90;101987.91;5015110;28;20049;-48
2022/05/04 02:01:57;;;;;;;8.30;3.20;;;;;;;8.47;68.76;101985.25;5014775;28;20033;-47
2022/05/04 02:04:22;;;;;;;15.55;3.17;;;;;;;8.41;68.16;101982.44;5014934;28;20022;-47
2022/05/04 02:06:48;;;;;;;9.48;3.28;;;;;;;8.51;68.51;101981.41;5014633;28;20025;-47
2022/05/04 02:09:13;;;;;;;10.15;3.03;;;;;;;8.64;68.20;101980.28;5015054;28;20064;-46
2022/05/04 02:11:39;;;;;;;9.77;2.90;;;;;;;8.56;67.71;101981.00;5014937;28;20029;-48
2022/05/04 02:14:05;;;;;;;12.73;3.25;;;;;;;8.61;67.59;101972.84;5014509;28;20048;-48
2022/05/04 02:16:31;;;;;;;10.95;3.20;;;;;;;8.48;67.94;101979.13;5014492;28;20049;-48
2022/05/04 02:18:57;;;;;;;12.23;3.35;;;;;;;8.50;68.32;101973.84;5014792;28;20435;-48
2022/05/04 02:21:23;;;;;;;8.20;3.03;;;;;;;8.35;69.16;101986.38;5014456;28;20026;-47
2022/05/04 02:23:48;;;;;;;8.50;2.95;;;;;;;8.34;68.75;101982.16;5014657;28;20357;-48
2022/05/04 02:26:14;;;;;;;16.25;3.33;;;;;;;8.34;69.29;101971.84;5014875;28;20037;-47
2022/05/04 02:28:39;;;;;;;14.57;3.28;;;;;;;8.15;68.50;101975.34;5014524;28;20028;-46
2022/05/04 02:31:04;;;;;;;8.70;3.10;;;;;;;8.04;68.76;101968.59;5014612;28;20030;-47
2022/05/04 02:33:30;;;;;;;16.75;3.40;;;;;;;8.11;69.09;101974.81;5014527;28;20033;-47
2022/05/04 02:38:39;;;;;;;12.32;3.25;;;;;;;8.16;69.48;101971.00;5014484;28;20049;-48
2022/05/04 02:41:05;;;;;;;14.00;3.17;;;;;;;8.05;69.50;101967.63;5014212;28;20480;-47
2022/05/04 02:43:30;;;;;;;11.27;3.22;;;;;;;7.95;70.29;101964.28;5014135;28;20468;-47
2022/05/04 02:45:57;;;;;;;8.85;3.17;;;;;;;7.81;71.31;101962.97;5014317;28;20033;-48
2022/05/04 02:48:23;;;;;;;16.92;3.85;;;;;;;7.82;71.46;101971.50;5013878;28;20108;-48
2022/05/04 02:50:48;;;;;;;10.50;3.75;;;;;;;7.60;71.06;101960.59;5014008;28;20053;-48
2022/05/04 02:53:14;;;;;;;13.52;3.70;;;;;;;7.60;72.04;101957.22;5014134;28;20026;-48
2022/05/04 02:55:39;;;;;;;12.98;3.83;;;;;;;7.62;71.47;101950.97;5014208;28;20029;-47
2022/05/04 02:58:04;;;;;;;13.93;3.60;;;;;;;7.47;72.33;101955.72;5014115;28;20013;-48
2022/05/04 03:00:30;;;;;;;11.13;3.50;;;;;;;7.32;72.75;101957.09;5014099;28;20109;-48
2022/05/04 03:02:56;;;;;;;12.18;3.60;;;;;;;7.20;73.29;101956.44;5013826;28;20032;-46
2022/05/04 03:05:22;;;;;;;13.77;3.53;;;;;;;7.25;73.44;101956.03;5013883;28;20080;-46
2022/05/04 03:07:48;;;;;;;15.35;3.70;;;;;;;7.17;73.85;101954.13;5013652;28;20435;-46
2022/05/04 03:10:14;;;;;;;7.20;3.65;;;;;;;7.29;74.12;101954.81;5013800;28;20072;-46
2022/05/04 03:12:40;;;;;;;13.27;3.65;;;;;;;7.30;73.79;101953.03;5014032;28;20116;-47
2022/05/04 03:15:06;;;;;;;15.65;4.32;;;;;;;7.25;73.42;101958.59;5013763;28;20053;-46
2022/05/04 03:17:32;;;;;;;18.92;4.15;;;;;;;7.29;74.34;101941.94;5013950;28;20156;-46
2022/05/04 03:19:58;;;;;;;14.32;4.30;;;;;;;7.24;74.35;101949.25;5014107;28;20080;-46
2022/05/04 03:22:24;;;;;;;9.38;3.40;;;;;;;7.24;74.63;101951.81;5012298;28;20022;-47
2022/05/04 03:24:49;;;;;;;14.05;3.78;;;;;;;7.16;74.70;101952.53;5014129;28;20021;-46
2022/05/04 03:27:14;;;;;;;13.18;3.85;;;;;;;7.19;74.66;101947.09;5013723;28;20018;-46
2022/05/04 03:29:40;;;;;;;15.52;3.97;;;;;;;7.15;74.68;101952.66;5013800;28;20164;-46
2022/05/04 03:32:06;;;;;;;17.38;4.60;;;;;;;7.04;74.79;101945.88;5013701;28;20368;-46
2022/05/04 03:34:31;;;;;;;11.07;3.50;;;;;;;7.07;74.59;101950.72;5013373;28;20078;-46
2022/05/04 03:36:58;;;;;;;10.82;3.83;;;;;;;6.98;75.04;101943.84;5013462;28;20022;-46
2022/05/04 03:39:24;;;;;;;16.50;3.88;;;;;;;6.95;75.14;101947.50;5013698;28;20029;-46
2022/05/04 03:41:50;;;;;;;10.63;3.90;;;;;;;6.95;75.63;101952.63;5013684;28;20022;-46
2022/05/04 03:44:16;;;;;;;14.55;3.60;;;;;;;6.72;75.99;101943.53;4996422;28;20032;-47
2022/05/04 03:46:49;;;;;;;10.05;3.50;;;;;;;6.81;76.89;101944.50;5013620;28;20050;-47
2022/05/04 03:49:17;;;;;;;10.05;3.80;;;;;;;6.80;76.89;101946.28;5013644;28;20030;-47
2022/05/04 03:51:42;;;;;;;9.20;3.80;;;;;;;6.76;76.82;101947.47;5013586;28;20519;-48
2022/05/04 03:54:08;;;;;;;9.77;3.92;;;;;;;6.83;76.19;101947.75;5013231;28;20029;-47
2022/05/04 03:56:34;;;;;;;10.57;3.90;;;;;;;6.80;76.52;101948.84;5013547;28;20096;-46
2022/05/04 03:59:00;;;;;;;13.63;3.90;;;;;;;6.73;76.51;101943.44;5013534;28;20022;-48
2022/05/04 04:01:25;;;;;;;11.70;3.90;;;;;;;6.84;76.26;101946.81;5013559;28;20488;-47
2022/05/04 04:03:51;;;;;;;11.88;4.82;;;;;;;6.78;76.66;101935.31;5013733;28;20358;-48
2022/05/04 04:06:16;;;;;;;9.13;3.97;;;;;;;6.76;77.13;101950.88;5017411;28;20061;-47
2022/05/04 04:08:42;;;;;;;7.80;3.70;;;;;;;6.76;77.20;101945.72;5017354;28;20453;-46
2022/05/04 04:11:07;;;;;;;7.75;3.70;;;;;;;6.65;77.17;101948.41;5016856;28;20034;-48
2022/05/04 04:13:32;;;;;;;11.70;3.78;;;;;;;6.60;77.63;101947.19;5017354;28;20033;-48
2022/05/04 04:15:58;;;;;;;14.98;3.75;;;;;;;6.61;77.68;101944.47;5016571;28;20049;-46
2022/05/04 04:18:25;;;;;;;10.23;3.80;;;;;;;6.66;77.91;101944.88;5016758;28;20111;-46
2022/05/04 04:23:35;;;;;;;11.93;4.18;;;;;;;6.61;77.49;101944.47;5016654;28;20527;-47
2022/05/04 04:26:03;;;;;;;14.45;4.30;;;;;;;6.67;77.38;101948.25;5016466;28;20025;-48
2022/05/04 04:28:29;;;;;;;9.80;4.07;;;;;;;6.52;77.83;101942.69;5017194;28;20036;-46
2022/05/04 04:30:54;;;;;;;11.80;4.13;;;;;;;6.48;77.99;101943.91;5016452;28;20026;-47
2022/05/04 04:33:22;;;;;;;11.10;4.45;;;;;;;6.50;78.13;101949.72;5016790;28;20163;-47
2022/05/04 04:35:51;;;;;;;10.95;4.07;;;;;;;6.60;78.37;101952.31;5016727;28;20052;-47
2022/05/04 04:38:16;;;;;;;9.10;4.35;;;;;;;6.59;77.52;101946.38;5016170;28;20072;-47
2022/05/04 04:40:42;;;;;;;13.32;4.53;;;;;;;6.59;77.86;101948.09;5016589;28;20026;-46
2022/05/04 04:43:07;;;;;;;12.18;4.38;;;;;;;6.50;78.12;101953.13;5016307;28;20022;-47
2022/05/04 04:45:32;;;;;;;13.85;4.95;;;;;;;6.58;77.73;101951.63;5016785;28;20022;-47
2022/05/04 04:47:58;;;;;;;11.43;4.70;;;;;;;6.66;77.25;101939.75;5016135;28;20026;-47
2022/05/04 04:50:23;;;;;;;11.32;4.60;;;;;;;6.67;76.77;101954.22;5016325;28;20033;-47
2022/05/04 04:52:49;;;;;;;8.93;3.67;;;;;;;6.77;76.46;101949.91;5016388;28;20132;-47
2022/05/04 04:55:14;;;;;;;12.00;3.90;;;;;;;6.77;75.83;101949.91;5016269;28;20088;-46
2022/05/04 04:57:39;;;;;;;11.85;4.28;;;;;;;6.87;75.57;101949.09;5015994;28;20022;-46
2022/05/04 05:00:06;;;;;;;12.88;4.25;;;;;;;6.91;75.59;101953.84;5015823;28;20030;-48
2022/05/04 05:02:31;;;;;;;10.40;4.25;;;;;;;6.94;75.86;101947.63;4998346;28;20452;-48
2022/05/04 05:04:57;;;;;;;14.55;4.30;;;;;;;6.94;76.07;101950.22;5015927;28;20025;-48
2022/05/04 05:07:22;;;;;;;12.98;4.30;;;;;;;6.92;76.06;101952.09;5015343;28;20446;-48
2022/05/04 05:09:48;;;;;;;13.70;4.60;;;;;;;7.03;75.71;101957.09;5015752;28;20026;-48
2022/05/04 05:12:13;;;;;;;11.23;4.38;;;;;;;7.19;74.44;101961.69;5015965;28;20226;-48
2022/05/04 05:17:22;;;;;;;13.88;4.47;;;;;;;7.33;73.83;101956.13;5016049;28;20037;-51
2022/05/04 05:19:48;;;;;;;10.70;4.35;;;;;;;7.42;73.60;101959.66;5015879;28;20381;-47
2022/05/04 05:22:13;;;;;;;10.85;4.43;;;;;;;7.47;73.38;101954.91;5014285;28;20068;-47
2022/05/04 05:24:38;;;;;;;12.52;4.28;;;;;;;7.49;72.32;101959.94;5015805;28;20109;-47
2022/05/04 05:27:06;;;;;;;11.75;4.10;;;;;;;7.51;72.44;101958.00;4998666;28;20105;-48
2022/05/04 05:29:31;;;;;;;21.92;4.70;;;;;;;7.58;72.42;101948.81;5015402;28;20461;-48
2022/05/04 05:31:57;;;;;;;13.07;4.32;;;;;;;7.60;72.24;101955.44;5015352;28;20026;-47
2022/05/04 05:34:22;;;;;;;9.95;4.53;;;;;;;7.65;72.53;101948.13;5015770;28;20060;-47
2022/05/04 05:36:47;;;;;;;12.52;4.40;;;;;;;7.79;71.40;101951.19;5015600;28;20025;-47
2022/05/04 05:39:12;;;;;;;11.85;4.00;;;;;;;7.88;71.46;101950.34;5015183;28;20026;-47
2022/05/04 05:41:38;;;;;;;11.82;4.55;;;;;;;8.02;71.24;101960.19;5013945;28;20025;-46
2022/05/04 05:44:04;;;;;;;12.70;4.35;;;;;;;8.05;71.05;101957.34;5015107;28;20374;-45
2022/05/04 05:46:30;;;;;;;15.02;4.80;;;;;;;8.16;70.70;101958.94;5015288;28;20111;-46
2022/05/04 05:48:55;;;;;;;10.27;4.40;;;;;;;8.23;70.78;101949.69;5015512;28;20473;-47
2022/05/04 05:51:20;;;;;;;13.18;4.47;;;;;;;8.01;72.13;101958.56;5014955;28;20037;-47
2022/05/04 05:53:45;;;;;;;13.90;4.65;;;;;;;8.17;72.42;101954.56;5015437;28;20079;-46
2022/05/04 05:56:11;;;;;;;18.20;4.90;;;;;;;8.71;69.34;101960.69;5013511;28;20377;-47
2022/05/04 05:58:36;;;;;;;15.02;4.40;;;;;;;15.40;49.83;101952.53;5015340;28;20018;-46
2022/05/04 06:01:01;;;;;;;8.13;3.90;;;;;;;18.19;42.82;101956.31;5014846;28;20030;-45
2022/05/04 06:03:28;;;;;;;15.13;4.50;;;;;;;19.75;37.20;101948.66;5014945;28;20034;-45
2022/05/04 06:05:53;;;;;;;17.25;4.35;;;;;;;20.44;36.76;101954.44;5014678;28;20113;-46
2022/05/04 06:08:18;;;;;;;15.60;3.85;;;;;;;21.12;33.84;101948.72;5014842;28;20108;-45
2022/05/04 06:10:44;;;;;;;12.52;3.85;;;;;;;21.14;34.38;101957.16;5015086;28;20064;-41
2022/05/04 06:13:10;;;;;;;11.85;3.78;;;;;;;21.95;32.62;101957.31;5014835;28;20535;-41
2022/05/04 06:15:35;;;;;;;11.30;3.25;;;;;;;20.88;33.57;101936.59;5014527;28;20100;-41
2022/05/04 06:18:01;;;;;;;8.57;3.22;;;;;;;18.83;37.38;101940.66;5014289;28;20017;-42
2022/05/04 06:20:27;;;;;;;10.35;3.40;;;;;;;20.16;34.82;101947.94;5014556;28;20469;-41
2022/05/04 06:22:53;;;;;;;12.73;3.50;;;;;;;21.09;33.50;101938.69;5013057;28;20469;-41
2022/05/04 06:25:18;;;;;;;9.95;3.13;;;;;;;21.47;32.81;101947.94;5014857;28;20117;-42
2022/05/04 06:27:43;;;;;;;12.68;3.50;;;;;;;21.92;31.92;101952.47;5013788;28;20465;-43
2022/05/04 06:35:37;;;;;;;14.68;3.22;;;;;;;23.36;29.16;101951.19;5014551;28;20507;-41
2022/05/04 06:38:02;;;;;;;11.75;3.30;;;;;;;23.59;28.70;101944.03;5014194;28;20022;-42
2022/05/04 06:40:28;;;;;;;11.60;3.78;;;;;;;23.86;29.21;101941.50;5013133;28;20025;-42
2022/05/04 06:42:53;;;;;;;11.25;3.10;;;;;;;23.71;29.18;101934.22;5014390;28;20037;-42
2022/05/04 06:45:19;;;;;;;11.18;3.10;;;;;;;22.81;29.26;101941.38;5014369;28;20432;-42
2022/05/04 06:47:44;;;;;;;11.30;3.20;;;;;;;23.93;28.52;101944.72;4996451;28;20022;-42
2022/05/04 06:50:10;;;;;;;10.43;3.20;;;;;;;24.22;26.99;101944.47;5014309;28;20034;-41
2022/05/04 06:52:37;;;;;;;15.70;3.00;;;;;;;23.47;27.84;101949.44;5014109;28;20029;-48
2022/05/04 06:55:03;;;;;;;11.55;3.15;;;;;;;24.17;28.07;101954.97;5013947;28;20026;-43
2022/05/04 06:57:28;;;;;;;9.95;3.10;;;;;;;24.07;26.98;101953.84;5013789;28;20068;-41
2022/05/04 06:59:54;;;;;;;10.77;2.97;;;;;;;23.73;26.71;101942.66;5013947;28;20037;-42
2022/05/04 07:02:19;;;;;;;10.00;2.92;;;;;;;24.28;26.50;101946.94;5013685;28;20021;-43
2022/05/04 07:04:45;;;;;;;8.75;2.70;;;;;;;24.84;25.81;101953.72;5014174;28;20093;-41
2022/05/04 07:07:10;;;;;;;7.70;2.55;;;;;;;23.79;26.82;101949.59;5013591;28;20419;-42
2022/05/04 07:09:36;;;;;;;9.45;2.53;;;;;;;22.78;27.69;101956.88;5013559;28;20030;-42
2022/05/04 07:12:02;;;;;;;8.75;2.70;;;;;;;21.40;30.28;101953.28;5014099;28;20026;-41
2022/05/04 07:14:27;;;;;;;12.40;2.80;;;;;;;22.49;28.91;101952.47;5013954;28;20026;-43
2022/05/04 07:16:53;;;;;;;8.88;2.63;;;;;;;22.08;29.39;101953.59;5013503;28;20049;-44
2022/05/04 07:19:18;;;;;;;8.35;2.95;;;;;;;22.72;28.51;101954.16;4995921;28;20036;-44
2022/05/04 07:21:45;;;;;;;9.57;2.97;;;;;;;23.20;27.70;101952.00;5013727;28;20389;-42
2022/05/04 07:24:11;;;;;;;11.05;3.13;;;;;;;22.48;28.82;101955.38;5013693;28;20040;-40
2022/05/04 07:26:37;;;;;;;9.93;3.13;;;;;;;22.10;29.31;101954.16;4996015;28;20524;-41
2022/05/04 07:29:02;;;;;;;10.32;3.30;;;;;;;22.03;29.69;101958.75;5013312;28;20473;-42
2022/05/04 07:31:28;;;;;;;7.40;3.15;;;;;;;22.19;29.62;101957.25;5013404;28;20056;-42
2022/05/04 07:33:53;;;;;;;13.93;3.65;;;;;;;22.37;28.75;101959.66;5013551;28;20172;-42
2022/05/04 07:36:18;;;;;;;11.95;3.75;;;;;;;21.07;31.25;101945.97;5013713;28;20176;-42
2022/05/04 07:38:43;;;;;;;11.48;3.70;;;;;;;21.39;30.54;101951.69;5014769;28;20041;-41
2022/05/04 07:43:53;;;;;;;8.52;3.38;;;;;;;17.51;37.20;101961.13;5017225;28;20044;-43
2022/05/04 07:46:18;;;;;;;11.65;3.40;;;;;;;17.97;36.51;101962.84;5017203;28;20457;-43
2022/05/04 07:48:44;;;;;;;9.38;3.83;;;;;;;17.56;38.52;101966.56;5017483;28;20025;-43
2022/05/04 07:51:09;;;;;;;10.85;3.92;;;;;;;17.81;37.66;101964.91;5017557;28;20065;-43
2022/05/04 07:53:35;;;;;;;9.15;3.53;;;;;;;17.52;38.66;101966.19;5017703;28;20113;-44
2022/05/04 07:56:00;;;;;;;10.57;3.78;;;;;;;17.32;38.42;101966.19;5017369;28;20388;-43
2022/05/04 07:58:25;;;;;;;9.45;3.97;;;;;;;16.91;39.56;101959.34;5017354;28;20076;-43
2022/05/04 08:06:18;;;;;;;8.88;3.28;;;;;;;17.32;39.25;101974.03;5017181;28;20129;-43
2022/05/04 08:08:44;;;;;;;8.07;3.30;;;;;;;17.49;38.56;101971.81;5016712;28;20100;-42
2022/05/04 08:11:09;;;;;;;9.27;3.50;;;;;;;17.62;38.07;101970.16;5015513;28;20545;-41
2022/05/04 08:13:34;;;;;;;8.35;3.33;;;;;;;17.35;38.50;101965.78;5017100;28;20037;-42
2022/05/04 08:16:00;;;;;;;12.82;3.63;;;;;;;17.84;37.61;101961.09;5016700;28;20519;-42
2022/05/04 08:18:26;;;;;;;11.73;3.47;;;;;;;17.17;38.55;101962.97;5016642;28;20022;-43
2022/05/04 08:20:52;;;;;;;9.32;3.42;;;;;;;17.01;38.97;101966.81;5016914;28;20033;-43
2022/05/04 08:23:17;;;;;;;9.00;3.40;;;;;;;16.94;39.47;101963.38;5016548;28;20026;-43
2022/05/04 08:25:44;;;;;;;11.25;3.70;;;;;;;16.68;39.61;101959.72;5016525;28;20495;-41
2022/05/04 08:28:12;;;;;;;10.07;3.95;;;;;;;15.80;42.29;101958.81;4998808;28;20025;-41
2022/05/04 08:30:38;;;;;;;9.32;3.55;;;;;;;16.26;41.40;101962.63;5016994;28;20025;-43
2022/05/04 08:33:03;;;;;;;8.32;3.40;;;;;;;16.21;41.48;101964.00;5016209;28;20033;-41
2022/05/04 08:35:29;;;;;;;12.15;3.40;;;;;;;16.02;42.01;101960.34;5016489;28;20465;-43
2022/05/04 08:37:54;;;;;;;8.23;3.10;;;;;;;16.64;41.10;101966.34;5014996;28;20030;-42
2022/05/04 08:40:19;;;;;;;12.15;3.50;;;;;;;16.36;41.90;101960.44;5016616;28;20026;-42
2022/05/04 08:42:45;;;;;;;7.65;3.00;;;;;;;16.40;42.73;101964.25;5015973;28;20135;-43
2022/05/04 08:45:12;;;;;;;9.00;3.30;;;;;;;15.79;43.07;101963.25;5014788;28;20099;-43
2022/05/04 08:47:40;;;;;;;11.43;3.60;;;;;;;16.41;42.03;101964.06;5016101;28;20026;-43
2022/05/04 08:50:10;;;;;;;10.15;3.47;;;;;;;16.79;41.09;101955.75;5015600;28;20465;-42
2022/05/04 08:52:38;;;;;;;10.27;3.67;;;;;;;16.85;42.06;101964.59;4998372;28;20022;-43
2022/05/04 08:55:05;;;;;;;7.53;3.33;;;;;;;17.54;40.10;101953.69;5016033;28;20029;-42
2022/05/04 08:57:31;;;;;;;11.27;3.63;;;;;;;17.75;40.43;101955.25;5016332;28;20435;-43
2022/05/04 08:59:56;;;;;;;8.57;3.72;;;;;;;18.02;39.81;101960.41;5015712;28;20058;-43
2022/05/04 09:02:22;;;;;;;11.10;3.50;;;;;;;18.34;38.32;101956.03;5016854;28;20036;-44
2022/05/04 09:04:47;;;;;;;11.73;3.80;;;;;;;19.25;37.26;101954.78;5016122;28;20025;-41
2022/05/04 09:07:26;;;;;;;9.32;3.33;;;;;;;18.83;37.86;101954.53;4998072;28;20462;-42
2022/05/04 09:09:53;;;;;;;9.63;3.70;;;;;;;17.97;38.66;101961.03;5015911;28;20026;-42
2022/05/04 09:12:18;;;;;;;11.43;3.70;;;;;;;18.07;38.60;101962.41;4998474;28;20025;-43
2022/05/04 09:14:44;;;;;;;6.97;3.60;;;;;;;17.68;38.61;101953.66;5015540;28;20030;-42
2022/05/04 09:17:11;;;;;;;11.52;4.10;;;;;;;16.65;40.82;101954.88;5016208;28;20026;-42
2022/05/04 09:19:37;;;;;;;12.57;4.05;;;;;;;16.72;40.17;101956.72;5015806;28;20018;-41
2022/05/04 09:22:15;;;;;;;12.35;4.07;;;;;;;16.46;40.71;101951.25;5015832;28;20029;-42
2022/05/04 09:24:43;;;;;;;11.52;4.00;;;;;;;17.50;39.83;101952.50;5015469;28;20029;-41
2022/05/04 09:27:08;;;;;;;11.63;3.67;;;;;;;17.08;39.84;101951.94;5015381;28;20021;-42
2022/05/04 09:29:35;;;;;;;8.65;4.00;;;;;;;18.44;37.41;101934.63;5015376;28;20539;-41
2022/05/04 09:32:11;;;;;;;9.40;3.90;;;;;;;17.88;37.61;101961.47;5014947;28;20021;-42
2022/05/04 09:34:36;;;;;;;12.02;4.00;;;;;;;16.91;39.36;101954.13;4998315;28;20062;-43
2022/05/04 09:45:36;;;;;;;9.38;4.13;;;;;;;18.53;38.20;101945.66;5015470;28;20123;-42
2022/05/04 09:48:02;;;;;;;10.50;4.03;;;;;;;18.68;37.76;101940.94;5014802;28;20112;-42
2022/05/04 09:50:28;;;;;;;14.10;4.20;;;;;;;17.65;39.31;101943.63;5014751;28;20524;-41
2022/05/04 09:52:57;;;;;;;7.63;3.92;;;;;;;17.21;39.25;101943.31;5015160;28;20168;-42
2022/05/04 09:55:24;;;;;;;9.15;4.10;;;;;;;16.89;40.46;101937.09;5014957;28;20532;-42
2022/05/04 09:57:50;;;;;;;9.13;3.92;;;;;;;16.64;40.91;101936.84;5014432;28;20409;-41
2022/05/04 10:00:19;;;;;;;11.27;4.18;;;;;;;16.26;40.84;101939.16;5013222;28;20026;-42
2022/05/04 10:02:45;;;;;;;11.77;4.20;;;;;;;16.74;40.92;101926.78;5013803;28;20029;-42
2022/05/04 10:05:12;;;;;;;11.95;4.32;;;;;;;16.62;40.07;101929.19;5014141;28;20110;-42
2022/05/04 10:07:37;;;;;;;10.38;4.20;;;;;;;17.52;39.93;101936.59;5014062;28;20021;-42
2022/05/04 10:10:07;;;;;;;9.27;4.32;;;;;;;18.04;37.80;101932.25;5014481;28;20042;-41
2022/05/04 10:12:41;;;;;;;15.13;4.65;;;;;;;17.65;39.61;101926.13;4996886;28;20036;-42
2022/05/04 10:15:08;;;;;;;9.25;4.40;;;;;;;18.09;39.69;101931.59;5014202;28;20116;-42
2022/05/04 10:17:37;;;;;;;11.90;4.28;;;;;;;17.77;38.72;101931.50;5014727;28;20076;-42
2022/05/04 10:20:09;;;;;;;9.68;4.43;;;;;;;17.94;38.66;101926.66;5014794;28;20022;-42
2022/05/04 10:22:47;;;;;;;9.73;4.00;;;;;;;18.94;37.57;101921.63;5113468;27;1204191;-43
2022/05/04 10:25:14;;;;;;;11.57;4.00;;;;;;;19.49;38.08;101924.31;5131987;27;20470;-43
2022/05/04 10:27:41;;;;;;;11.27;4.40;;;;;;;19.49;36.22;101926.91;5130308;28;20118;-43
2022/05/04 10:32:57;;;;;;;11.35;4.57;;;;;;;19.01;37.00;101918.94;5132428;28;20516;-43
2022/05/04 10:35:35;;;;;;;9.35;4.45;;;;;;;18.76;37.42;101921.53;5131447;27;20058;-41
2022/05/04 10:38:00;;;;;;;11.77;4.28;;;;;;;19.96;35.80;101918.53;5112706;28;20487;-43
2022/05/04 10:40:32;;;;;;;6.87;3.83;;;;;;;19.22;36.26;101913.31;5131779;28;20023;-42
2022/05/04 10:43:01;;;;;;;11.35;4.32;;;;;;;18.30;37.14;101912.16;5131213;27;20051;-42
2022/05/04 10:45:35;;;;;;;13.13;4.22;;;;;;;18.80;37.14;101902.59;5131510;27;20054;-42
2022/05/04 10:48:13;;;;;;;17.38;4.63;;;;;;;19.30;35.42;101907.75;5131379;27;20464;-42
2022/05/04 10:50:50;;;;;;;13.38;4.38;;;;;;;18.86;35.75;101898.31;5130918;27;20099;-41
2022/05/04 10:53:24;;;;;;;10.50;4.15;;;;;;;19.08;35.60;101898.72;5131228;28;20039;-43
2022/05/04 10:55:59;;;;;;;12.45;4.43;;;;;;;19.32;33.77;101900.47;5131101;28;20019;-42
2022/05/04 10:58:43;;;;;;;10.65;4.45;;;;;;;19.36;34.13;101901.66;5131903;27;20448;-42
2022/05/04 11:01:14;;;;;;;8.48;4.35;;;;;;;19.57;35.23;101891.75;5131006;28;20055;-42
2022/05/04 11:03:51;;;;;;;8.52;4.18;;;;;;;20.56;33.68;101884.38;5129816;28;20114;-43
2022/05/04 11:06:36;;;;;;;15.57;4.38;;;;;;;20.07;34.28;101888.91;5131054;28;20127;-43
2022/05/04 11:09:15;;;;;;;18.08;6.38;;;;;;;20.60;35.01;101890.78;5127319;27;20024;-43
2022/05/04 11:11:49;;;;;;;15.00;5.70;;;;;;;19.37;35.91;101891.97;5110611;28;20027;-43
2022/05/04 11:14:17;;;;;;;17.73;5.50;;;;;;;19.64;35.56;101892.47;5110786;28;20028;-42
2022/05/04 11:16:44;;;;;;;15.52;5.65;;;;;;;18.81;36.61;101895.53;5108928;28;20466;-42
2022/05/04 11:19:12;;;;;;;12.05;5.38;;;;;;;19.41;35.80;101894.97;5109953;28;20024;-43
2022/05/04 11:21:38;;;;;;;14.27;5.82;;;;;;;19.07;36.53;101895.28;5109969;28;20089;-42
2022/05/04 11:24:06;;;;;;;13.80;5.35;;;;;;;19.95;37.26;101886.25;5110306;28;20105;-43
2022/05/04 11:26:47;;;;;;;14.18;5.57;;;;;;;18.13;38.21;101898.81;5109892;28;20024;-43
2022/05/04 11:29:15;;;;;;;14.27;5.50;;;;;;;17.72;38.40;101903.38;5110162;28;20030;-43
2022/05/04 11:31:47;;;;;;;13.85;5.13;;;;;;;18.48;37.71;101894.75;5110145;28;20020;-42
2022/05/04 11:34:17;;;;;;;10.68;4.70;;;;;;;19.42;36.14;101891.31;5095608;28;20023;-43
2022/05/04 11:36:48;;;;;;;14.57;5.35;;;;;;;19.54;35.77;101886.97;5096426;28;20059;-43
2022/05/04 11:39:21;;;;;;;13.30;5.78;;;;;;;19.81;35.81;101885.63;5096460;28;20032;-43
2022/05/04 11:41:49;;;;;;;13.60;5.28;;;;;;;20.20;35.58;101880.06;5096349;28;20073;-42
2022/05/04 11:44:15;;;;;;;14.65;5.13;;;;;;;20.31;35.50;101881.91;5096276;28;20024;-42
2022/05/04 11:46:43;;;;;;;10.40;4.55;;;;;;;20.51;34.87;101871.91;5096052;28;20493;-43
2022/05/04 11:49:09;;;;;;;11.85;4.55;;;;;;;20.51;35.82;101881.59;5095133;28;20374;-42
2022/05/04 11:51:35;;;;;;;11.50;4.93;;;;;;;20.33;35.06;101877.22;5096270;28;20450;-43
2022/05/04 11:54:01;;;;;;;13.52;4.82;;;;;;;19.88;35.02;101880.31;5094646;28;20107;-43